Kennedale, Texas
Current Conditions -  °F | °C
As of 7:52 AM on Saturday 22 Nov 2014 (Local Time) from KFWS Reporting Station
Light Rain Light Rain  
Wind Chill: 61°   Ceiling: 300
Heat Index: 61°   Visibility: 0.75mi
Dew Point: 59°   Wind: 9mph
Humidity: 94%   Direction: 130°SE
Pressure: 30.04"   Gusts: NA
Location:  32.65°N, 97.23°W
Report Text: KFWS 221352Z 13008KT 3/4SM -RA OVC003 16/15 A3004
Loading
Personal Weather Stations






























Interactive Weather Map New forecast layout! Learn more

10-Day Weather Forecast

Advertisements
Track Severe Weather on mobile